Terminal Aerodrome Forecast
Issued by NWS Goodland, KS

Home | Current Version | Previous Version | Text Only | Print | Product List | Glossary On
Versions: 1 2 3 4 5 6 7 8 9 10 11 12 13 14 15 16 17 18 19 20 21
104
FTUS43 KGLD 260520
TAFGLD
TAF
KGLD 260520Z 2606/2706 20009KT P6SM FEW250
     FM261000 25013KT P6SM FEW050 FEW250
     FM261100 30015KT P6SM FEW040 SCT200
     FM261300 35029G38KT P6SM SCT025 BKN150
     FM261800 36024G32KT P6SM SCT120
     FM270000 36016KT P6SM FEW250=

USA.gov is the U.S. government's official web portal to all federal, state and local government web resources and services.